Pagina principale
METAR-TAF:

METAR-TAF

Aeroporti :

Aeroporto di Pescara

Pescara, Italia

latitudine: 42-26N, longitudine: 014-12E, altezza: 10 m

Osservazione

Il bollettino è stato emesso 24 minuti fa, alle 13:20 UTC
Vento 10 kt da nord/nord-est, variando fra nord e nord-est
Temperature 24°C
Umidità 83%
Pressione 1016 hPa
Visibilità 10 km o più

METAR: LIBP 271320Z AUTO 02010KT 350V050 9999 BKN010/// 24/21 Q1016

Ora: 15:44 (13:44 UTC)

Previsione

Il bollettino è stato emesso 2 ore e 44 minuti fa, alle 11:00 UTC
Previsione valida dal 27 alle 12 UTC al 28 alle 12 UTC
Vento 10 kt da nord-est
Visibilità 10 km o più
Nubi sparse ad un'altezza di 3000 ft
Temporaneamente
dal 27 alle 15 UTC al 27 alle 21 UTC
temporale, pioggia
Evoluzione graduale
dal 27 alle 18 UTC al 27 alle 20 UTC
Vento 7 kt da nord/nord-ovest

TAF: LIBP 271100Z 2712/2812 04010KT 9999 SCT030 TEMPO 2715/2721 TSRA BECMG 2718/2720 34007KT

Osservazioni e previsioni meteorologiche di più di 4000 aeroporti (messaggi METAR e TAF).

Le stazioni disponibili sono rappresentate dai dischi gialli e rossi sulla carta.

Puntare il mouse per vedere il nome della stazione.

Clicca sopra per visualizzare le osservazioni e previsioni meteorologiche.

Per cambiare la mappa : fare clic sui pulsanti verdi con una croce nera per ingrandire, il pulsante verde con un trattino per diminuire, o sulla freccia verde per le mappe adiacenti.


METAR-TAF: